Time;durP1;ratioP1;P1;durP2;ratioP2;P2;SDS_P1;SDS_P2;PMS_P1;PMS_P2;Temp;Humidity;BMP_temperature;BMP_pressure;BME280_temperature;BME280_humidity;BME280_pressure;Samples;Min_cycle;Max_cycle;Signal;HPM_P1;HPM_P2
2022/05/27 00:01:27;;;;;;;2.27;1.87;;;;;;;14.87;100.00;100913.13;5019937;28;21906;-76
2022/05/27 00:03:54;;;;;;;2.27;1.50;;;;;;;14.81;100.00;100908.88;5017983;28;20305;-75
2022/05/27 00:06:20;;;;;;;2.10;1.90;;;;;;;14.78;100.00;100912.41;5024075;28;20219;-76
2022/05/27 00:08:46;;;;;;;1.70;1.60;;;;;;;14.74;100.00;100908.13;5016336;28;20656;-76
2022/05/27 00:11:14;;;;;;;3.20;1.60;;;;;;;14.71;100.00;100902.13;5017839;28;20743;-75
2022/05/27 00:13:41;;;;;;;2.13;1.60;;;;;;;14.67;100.00;100896.03;5014509;28;20217;-75
2022/05/27 00:16:07;;;;;;;1.63;1.50;;;;;;;14.64;100.00;100907.38;5013929;28;20188;-75
2022/05/27 00:18:32;;;;;;;1.90;1.30;;;;;;;14.61;100.00;100907.44;5018046;28;21042;-75
2022/05/27 00:20:58;;;;;;;1.83;1.73;;;;;;;14.60;100.00;100895.28;5024248;28;20206;-75
2022/05/27 00:23:24;;;;;;;1.97;1.50;;;;;;;14.58;100.00;100894.47;5018593;28;20276;-75
2022/05/27 00:25:50;;;;;;;2.03;1.60;;;;;;;14.56;100.00;100893.63;5021009;28;20704;-75
2022/05/27 00:28:15;;;;;;;1.90;1.70;;;;;;;14.53;100.00;100888.47;5019373;28;20208;-75
2022/05/27 00:30:41;;;;;;;2.23;1.50;;;;;;;14.51;100.00;100887.63;5022418;28;20199;-76
2022/05/27 00:33:07;;;;;;;1.77;1.50;;;;;;;14.48;100.00;100887.66;5024295;28;20190;-76
2022/05/27 00:35:33;;;;;;;1.67;1.50;;;;;;;14.46;100.00;100886.81;5017066;28;20192;-76
2022/05/27 00:37:58;;;;;;;1.60;1.43;;;;;;;14.44;100.00;100888.63;5023369;28;20242;-76
2022/05/27 00:40:25;;;;;;;1.70;1.60;;;;;;;14.41;100.00;100889.50;5018863;28;20225;-76
2022/05/27 00:42:51;;;;;;;1.63;1.53;;;;;;;14.39;100.00;100883.47;5021960;28;20191;-75
2022/05/27 00:45:20;;;;;;;1.60;1.47;;;;;;;14.36;100.00;100891.34;5027608;28;20188;-76
2022/05/27 00:47:48;;;;;;;2.07;1.73;;;;;;;14.36;100.00;100882.66;5016729;28;20225;-76
2022/05/27 00:50:17;;;;;;;1.80;1.47;;;;;;;14.34;100.00;100882.69;5023705;28;20241;-75
2022/05/27 00:52:45;;;;;;;2.20;1.60;;;;;;;14.32;100.00;100889.66;5024409;28;20554;-76
2022/05/27 00:55:17;;;;;;;3.00;1.60;;;;;;;14.29;100.00;100885.34;5022232;28;20209;-76
2022/05/27 00:57:48;;;;;;;2.07;1.87;;;;;;;14.28;100.00;100875.84;5024284;28;20417;-76
2022/05/27 01:00:17;;;;;;;2.63;2.10;;;;;;;14.26;100.00;100884.53;5020695;28;20185;-75
2022/05/27 01:02:43;;;;;;;1.90;1.70;;;;;;;14.24;100.00;100881.09;5020520;28;20218;-77
2022/05/27 01:05:11;;;;;;;2.00;1.77;;;;;;;14.23;100.00;100877.63;5023855;28;20645;-75
2022/05/27 01:07:37;;;;;;;1.87;1.73;;;;;;;14.21;100.00;100876.78;5023572;28;20195;-76
2022/05/27 01:10:06;;;;;;;1.73;1.63;;;;;;;14.21;100.00;100873.34;5021090;28;20226;-75
2022/05/27 01:12:53;;;;;;;2.50;2.07;;;;;;;14.21;100.00;100870.75;5018381;28;20200;-75
2022/05/27 01:15:35;;;;;;;3.10;2.00;;;;;;;14.20;100.00;100874.22;5023569;28;20276;-75
2022/05/27 01:21:43;;;;;;;4.17;1.90;;;;;;;14.20;100.00;100863.81;5024872;28;20302;-75
2022/05/27 01:24:14;;;;;;;2.70;1.90;;;;;;;14.17;100.00;100868.19;5024593;28;20192;-75
2022/05/27 01:27:01;;;;;;;2.10;1.90;;;;;;;14.15;100.00;100859.53;5023103;28;20201;-75
2022/05/27 01:29:52;;;;;;;2.77;1.60;;;;;;;14.15;100.00;100869.94;5033422;28;20241;-75
2022/05/27 01:32:33;;;;;;;2.70;1.70;;;;;;;14.13;100.00;100871.69;5022624;28;20683;-76
2022/05/27 01:35:16;;;;;;;2.10;1.90;;;;;;;14.12;100.00;100874.34;5021387;28;20234;-77
2022/05/27 01:37:54;;;;;;;2.57;1.90;;;;;;;14.08;100.00;100865.69;5025244;28;20556;-77
2022/05/27 01:40:35;;;;;;;1.87;1.77;;;;;;;14.06;100.00;100858.78;5026516;28;20180;-77
2022/05/27 01:43:17;;;;;;;2.00;1.60;;;;;;;14.03;100.00;100864.91;5024316;28;20575;-76
2022/05/27 01:46:01;;;;;;;2.23;1.87;;;;;;;14.00;100.00;100868.41;5022922;28;20197;-75
2022/05/27 01:48:34;;;;;;;1.83;1.73;;;;;;;13.98;100.00;100862.38;5019958;28;20215;-75
2022/05/27 01:51:16;;;;;;;2.10;1.90;;;;;;;13.97;100.00;100857.19;5019947;28;20184;-76
2022/05/27 01:53:48;;;;;;;1.90;1.60;;;;;;;13.95;100.00;100862.41;5018079;28;20193;-76
2022/05/27 01:56:40;;;;;;;3.13;1.80;;;;;;;13.95;100.00;100867.63;5024664;28;20211;-76
2022/05/27 01:59:15;;;;;;;2.47;2.17;;;;;;;13.94;100.00;100855.50;5013671;28;20300;-76
2022/05/27 02:01:57;;;;;;;2.93;2.10;;;;;;;13.96;100.00;100860.66;5022795;28;20211;-76
2022/05/27 02:04:39;;;;;;;3.03;2.50;;;;;;;13.96;100.00;100858.94;5025177;28;20201;-76
2022/05/27 02:07:21;;;;;;;2.43;1.90;;;;;;;13.95;100.00;100854.63;5020655;28;20664;-76
2022/05/27 02:09:53;;;;;;;2.00;1.83;;;;;;;13.96;100.00;100851.13;5021878;28;20194;-76
2022/05/27 02:13:05;;;;;;;2.50;2.03;;;;;;;13.97;100.00;100847.66;5014273;28;20210;-75
2022/05/27 02:15:45;;;;;;;2.73;2.30;;;;;;;13.97;100.00;100850.25;5005878;28;20200;-76
2022/05/27 02:18:37;;;;;;;2.30;2.10;;;;;;;13.99;100.00;100848.47;5022860;28;20223;-76
2022/05/27 02:21:21;;;;;;;3.83;2.50;;;;;;;14.02;100.00;100847.56;5020974;28;20314;-76
2022/05/27 02:24:10;;;;;;;2.77;2.40;;;;;;;14.03;100.00;100844.94;5028065;28;20190;-76
2022/05/27 02:26:45;;;;;;;3.40;2.30;;;;;;;14.08;100.00;100844.03;5020364;28;20231;-76
2022/05/27 02:29:18;;;;;;;3.33;2.10;;;;;;;14.08;100.00;100847.47;5021154;28;20696;-76
2022/05/27 02:31:49;;;;;;;2.73;2.07;;;;;;;14.07;100.00;100850.09;5019374;28;20639;-77
2022/05/27 02:35:10;;;;;;;2.50;2.27;;;;;;;14.07;100.00;100845.75;5016947;28;20186;-77
2022/05/27 02:37:55;;;;;;;2.80;2.37;;;;;;;14.09;100.00;100845.75;4998799;28;20233;-77
2022/05/27 02:40:24;;;;;;;2.33;2.13;;;;;;;14.08;100.00;100847.47;5013593;28;20206;-77
2022/05/27 02:42:59;;;;;;;2.37;2.17;;;;;;;14.13;100.00;100842.22;5022830;28;20205;-77
2022/05/27 02:45:55;;;;;;;4.10;2.33;;;;;;;14.14;100.00;100855.19;5015809;28;20479;-77
2022/05/27 02:48:47;;;;;;;2.67;2.40;;;;;;;14.20;100.00;100845.59;5017010;28;20205;-76
2022/05/27 02:51:15;;;;;;;2.80;2.50;;;;;;;14.25;100.00;100854.16;5019943;28;20202;-76
2022/05/27 02:54:13;;;;;;;2.50;2.30;;;;;;;14.32;100.00;100851.44;5017626;28;20655;-77
2022/05/27 02:56:55;;;;;;;3.23;2.67;;;;;;;14.40;100.00;100855.69;5002082;28;20211;-76
2022/05/27 02:59:20;;;;;;;3.43;2.50;;;;;;;14.45;100.00;100852.13;5024378;28;20303;-76
2022/05/27 03:01:47;;;;;;;3.83;2.77;;;;;;;14.56;100.00;100854.56;5022666;28;20661;-76
2022/05/27 03:04:13;;;;;;;3.63;2.60;;;;;;;14.61;100.00;100851.88;5021358;28;20193;-77
2022/05/27 03:07:06;;;;;;;2.93;2.60;;;;;;;14.68;100.00;100863.09;5022938;28;20197;-76
2022/05/27 03:09:34;;;;;;;2.57;2.37;;;;;;;14.73;100.00;100856.06;5017405;28;20685;-76
2022/05/27 03:12:10;;;;;;;3.03;2.70;;;;;;;14.84;100.00;100853.25;5021636;28;20194;-76
2022/05/27 03:15:00;;;;;;;3.93;3.27;;;;;;;14.87;100.00;100848.88;5020750;28;20218;-76
2022/05/27 03:18:00;;;;;;;3.13;2.70;;;;;;;14.90;100.00;100845.34;5053149;28;20404;-77
2022/05/27 03:20:48;;;;;;;4.30;3.03;;;;;;;14.97;100.00;100853.91;5034254;28;20184;-76
2022/05/27 03:23:36;;;;;;;3.53;2.93;;;;;;;14.97;100.00;100840.88;5019943;28;20606;-76
2022/05/27 03:26:12;;;;;;;2.90;2.60;;;;;;;15.00;100.00;100846.03;5045727;28;20200;-76
2022/05/27 03:28:40;;;;;;;3.50;3.20;;;;;;;15.01;100.00;100846.00;5015325;28;20203;-76
2022/05/27 03:31:25;;;;;;;4.13;3.17;;;;;;;15.04;100.00;100845.94;5024782;28;20183;-76
2022/05/27 03:34:16;;;;;;;3.57;2.67;;;;;;;15.04;100.00;100848.53;5023242;28;20277;-76
2022/05/27 03:36:51;;;;;;;5.93;3.50;;;;;;;15.08;100.00;100838.91;5022836;28;20281;-76
2022/05/27 03:39:22;;;;;;;3.53;3.23;;;;;;;15.08;100.00;100849.34;5021495;28;20723;-77
2022/05/27 03:41:53;;;;;;;4.27;3.23;;;;;;;15.11;100.00;100840.63;5032701;28;20214;-76
2022/05/27 03:44:22;;;;;;;3.00;2.70;;;;;;;15.14;100.00;100843.16;5012946;28;20222;-76
2022/05/27 03:46:50;;;;;;;3.60;3.30;;;;;;;15.16;100.00;100837.03;5024917;28;20195;-76
2022/05/27 03:49:15;;;;;;;3.73;3.33;;;;;;;15.21;100.00;100843.00;5027211;28;20207;-76
2022/05/27 03:51:56;;;;;;;4.07;3.63;;;;;;;15.26;100.00;100842.06;5029009;28;20420;-77
2022/05/27 03:54:22;;;;;;;3.93;3.50;;;;;;;15.27;100.00;100844.66;5024271;28;20187;-76
2022/05/27 03:56:49;;;;;;;3.80;3.50;;;;;;;15.29;100.00;100847.22;5026257;28;20263;-77
2022/05/27 03:59:15;;;;;;;3.80;3.43;;;;;;;15.32;100.00;100850.63;5028632;28;20305;-77
2022/05/27 04:01:44;;;;;;;4.10;3.63;;;;;;;15.33;100.00;100857.56;5025403;28;20218;-76
2022/05/27 04:04:11;;;;;;;5.00;3.77;;;;;;;15.35;100.00;100857.53;5027096;28;20199;-76
2022/05/27 04:06:37;;;;;;;3.80;3.33;;;;;;;15.36;100.00;100852.28;5026806;28;20579;-76
2022/05/27 04:09:04;;;;;;;4.30;3.40;;;;;;;15.39;100.00;100856.56;5021367;28;20203;-77
2022/05/27 04:11:30;;;;;;;3.70;3.40;;;;;;;15.42;100.00;100855.66;5027727;28;20198;-76
2022/05/27 04:13:56;;;;;;;3.33;3.00;;;;;;;15.42;100.00;100846.09;5027536;28;20281;-77
2022/05/27 04:16:24;;;;;;;2.97;2.70;;;;;;;15.46;100.00;100849.47;5024191;28;20204;-76
2022/05/27 04:18:51;;;;;;;3.83;3.10;;;;;;;15.51;100.00;100855.47;5023424;28;20280;-77
2022/05/27 04:21:16;;;;;;;3.70;3.40;;;;;;;15.53;100.00;100851.09;5018293;28;20299;-76
2022/05/27 04:23:42;;;;;;;3.43;3.13;;;;;;;15.54;100.00;100851.03;5031604;28;20627;-77
2022/05/27 04:26:11;;;;;;;3.50;2.90;;;;;;;15.59;100.00;100864.00;5017320;28;20348;-76
2022/05/27 04:28:37;;;;;;;3.50;3.20;;;;;;;15.64;100.00;100862.16;5020114;28;20215;-76
2022/05/27 04:31:03;;;;;;;3.90;3.50;;;;;;;15.66;100.00;100855.16;5017676;28;20184;-77
2022/05/27 04:33:29;;;;;;;4.33;3.10;;;;;;;15.67;100.00;100862.09;5016914;28;20186;-77
2022/05/27 04:35:55;;;;;;;3.57;3.27;;;;;;;15.70;100.00;100869.88;5011343;28;20274;-76
2022/05/27 04:38:22;;;;;;;3.13;2.83;;;;;;;15.72;100.00;100875.03;5021127;28;20341;-76
2022/05/27 04:40:48;;;;;;;3.20;2.90;;;;;;;15.74;100.00;100880.22;5022453;28;20193;-76
2022/05/27 04:43:14;;;;;;;3.70;3.10;;;;;;;15.76;100.00;100876.69;5025629;28;20183;-76
2022/05/27 04:45:40;;;;;;;3.47;3.03;;;;;;;15.78;100.00;100884.50;5021660;28;20179;-76
2022/05/27 04:48:06;;;;;;;3.53;3.23;;;;;;;15.79;100.00;100876.66;5020233;28;20720;-76
2022/05/27 04:50:31;;;;;;;3.40;3.10;;;;;;;15.80;100.00;100880.97;5020568;28;20198;-76
2022/05/27 04:52:57;;;;;;;4.13;2.70;;;;;;;15.82;100.00;100878.31;5027126;28;20180;-76
2022/05/27 04:55:22;;;;;;;3.67;3.03;;;;;;;15.84;100.00;100880.00;5018326;28;20203;-75
2022/05/27 04:57:53;;;;;;;3.90;2.83;;;;;;;15.87;100.00;100881.72;5026101;28;20286;-75
2022/05/27 05:00:31;;;;;;;3.43;2.90;;;;;;;15.89;100.00;100890.34;5025391;28;20187;-76
2022/05/27 05:02:57;;;;;;;3.20;2.60;;;;;;;15.90;100.00;100884.25;5019899;28;20318;-76
2022/05/27 05:05:25;;;;;;;6.17;3.03;;;;;;;15.90;100.00;100881.63;5022065;28;20191;-77
2022/05/27 05:07:56;;;;;;;3.20;3.00;;;;;;;15.92;100.00;100884.25;5021053;28;20229;-75
2022/05/27 05:10:22;;;;;;;4.63;3.00;;;;;;;15.93;100.00;100899.00;5021040;28;20723;-76
2022/05/27 05:12:49;;;;;;;5.63;2.97;;;;;;;15.91;100.00;100903.41;5023767;28;20183;-77
2022/05/27 05:15:16;;;;;;;3.73;2.90;;;;;;;15.90;100.00;100899.06;5029292;28;20259;-76
2022/05/27 05:17:42;;;;;;;2.60;2.40;;;;;;;15.90;100.00;100901.69;5018739;28;20204;-76
2022/05/27 05:20:12;;;;;;;3.33;2.90;;;;;;;15.91;100.00;100911.22;5024454;28;20195;-76
2022/05/27 05:22:37;;;;;;;3.57;3.00;;;;;;;15.91;100.00;100906.00;5019454;28;20286;-76
2022/05/27 05:25:03;;;;;;;3.87;2.97;;;;;;;15.91;100.00;100906.00;5024638;28;20268;-77
2022/05/27 05:27:29;;;;;;;2.80;2.60;;;;;;;15.90;100.00;100901.69;5022285;28;20204;-76
2022/05/27 05:29:56;;;;;;;3.97;3.00;;;;;;;15.93;100.00;100897.25;5018775;28;20238;-76
2022/05/27 05:32:21;;;;;;;3.13;2.83;;;;;;;15.93;100.00;100902.47;5028304;28;20216;-77
2022/05/27 05:34:48;;;;;;;3.23;2.93;;;;;;;15.93;100.00;100899.84;5026150;28;20954;-76
2022/05/27 05:37:13;;;;;;;3.73;2.70;;;;;;;15.94;100.00;100896.34;5025700;28;20180;-77
2022/05/27 05:39:38;;;;;;;3.10;2.80;;;;;;;15.97;100.00;100895.41;5020861;28;20748;-77
2022/05/27 05:42:06;;;;;;;2.63;2.37;;;;;;;16.01;100.00;100894.47;5025808;28;20746;-76
2022/05/27 05:44:32;;;;;;;2.67;2.47;;;;;;;16.05;100.00;100893.50;5027349;28;20211;-77
2022/05/27 05:46:59;;;;;;;2.93;2.70;;;;;;;16.08;100.00;100897.81;5021094;28;20650;-76
2022/05/27 05:49:25;;;;;;;3.47;2.50;;;;;;;16.10;100.00;100902.13;5018276;28;20215;-76
2022/05/27 05:51:52;;;;;;;2.40;2.20;;;;;;;16.15;100.00;100899.41;5025598;28;20188;-76
2022/05/27 05:54:21;;;;;;;3.53;2.40;;;;;;;16.19;100.00;100903.63;5021357;28;20192;-76
2022/05/27 05:56:50;;;;;;;2.80;2.50;;;;;;;16.21;100.00;100898.41;5023323;28;20214;-76
2022/05/27 05:59:17;;;;;;;2.30;2.10;;;;;;;16.23;100.00;100902.69;5015530;28;20204;-76
2022/05/27 06:01:47;;;;;;;2.30;2.10;;;;;;;16.24;100.00;100907.00;5024325;28;20203;-77
2022/05/27 06:04:13;;;;;;;2.53;2.33;;;;;;;16.27;100.00;100908.69;5017467;28;20187;-77
2022/05/27 06:06:39;;;;;;;3.23;2.73;;;;;;;16.27;100.00;100908.69;5018533;28;20214;-77
2022/05/27 06:09:06;;;;;;;2.60;2.40;;;;;;;16.28;100.00;100905.19;5010774;28;20255;-76
2022/05/27 06:11:32;;;;;;;3.10;2.47;;;;;;;16.29;100.00;100902.56;5023619;28;20194;-77
2022/05/27 06:13:57;;;;;;;4.23;2.37;;;;;;;16.29;100.00;100906.91;5024507;28;20196;-76
2022/05/27 06:16:23;;;;;;;2.53;2.33;;;;;;;16.28;100.00;100906.06;5026444;28;20202;-76
2022/05/27 06:18:49;;;;;;;2.53;2.33;;;;;;;16.29;100.00;100905.16;5021054;28;20302;-76
2022/05/27 06:21:15;;;;;;;2.30;2.17;;;;;;;16.30;100.00;100901.66;5026236;28;20587;-76
2022/05/27 06:23:40;;;;;;;2.33;2.13;;;;;;;16.31;100.00;100910.34;5027033;28;20198;-77
2022/05/27 06:26:09;;;;;;;2.90;2.37;;;;;;;16.32;100.00;100908.59;5017249;28;20204;-76
2022/05/27 06:36:48;;;;;;;2.50;2.30;;;;;;;16.39;99.82;100903.19;5018730;28;20350;-75
2022/05/27 06:39:14;;;;;;;2.03;1.83;;;;;;;16.42;99.70;100903.09;5016482;28;20211;-76
2022/05/27 06:41:39;;;;;;;2.30;2.10;;;;;;;16.44;99.66;100903.94;5025105;28;20242;-77
2022/05/27 06:44:06;;;;;;;2.40;2.13;;;;;;;16.46;99.74;100909.97;5021628;28;20257;-76
2022/05/27 06:46:33;;;;;;;2.10;2.00;;;;;;;16.47;99.53;100910.84;5022957;28;20183;-76
2022/05/27 06:48:59;;;;;;;2.73;2.30;;;;;;;16.49;99.33;100916.88;5015079;28;20207;-75
2022/05/27 06:51:24;;;;;;;2.43;2.00;;;;;;;16.49;99.23;100906.44;5054410;28;20219;-76
2022/05/27 06:53:50;;;;;;;3.57;2.23;;;;;;;16.51;99.31;100912.47;5021346;28;20563;-77
2022/05/27 06:56:16;;;;;;;2.57;2.37;;;;;;;16.53;99.27;100918.53;5020580;28;20195;-76
2022/05/27 06:58:42;;;;;;;2.40;2.20;;;;;;;16.56;98.94;100908.00;5026089;28;20214;-77
2022/05/27 07:01:09;;;;;;;2.20;2.10;;;;;;;16.57;98.74;100909.72;5024539;28;20668;-76
2022/05/27 07:03:37;;;;;;;2.23;2.07;;;;;;;16.60;98.93;100909.66;5019272;28;20269;-76
2022/05/27 07:06:10;;;;;;;2.83;2.60;;;;;;;16.67;98.87;100913.00;5027097;28;20192;-76
2022/05/27 07:08:37;;;;;;;2.33;2.13;;;;;;;16.72;98.85;100910.25;5023854;28;20210;-75
2022/05/27 07:11:03;;;;;;;2.37;2.17;;;;;;;16.75;98.65;100905.81;5023815;28;20189;-75
2022/05/27 07:13:29;;;;;;;2.20;2.00;;;;;;;16.79;98.35;100911.81;5023293;28;20625;-76
2022/05/27 07:15:55;;;;;;;2.57;2.37;;;;;;;16.82;98.56;100914.34;5024378;28;20208;-76
2022/05/27 07:18:20;;;;;;;2.13;1.97;;;;;;;16.83;98.73;100916.06;5022917;28;20214;-76
2022/05/27 07:20:46;;;;;;;2.47;2.23;;;;;;;16.85;98.45;100916.91;5022237;28;20191;-76
2022/05/27 07:23:11;;;;;;;2.37;2.17;;;;;;;16.87;98.40;100917.72;5020724;28;20565;-76
2022/05/27 07:25:37;;;;;;;2.50;2.30;;;;;;;16.88;97.84;100913.34;5016394;28;20234;-75
2022/05/27 07:28:07;;;;;;;2.63;2.43;;;;;;;16.93;97.22;100911.47;5023835;28;20218;-75
2022/05/27 07:30:34;;;;;;;3.00;2.70;;;;;;;16.96;97.16;100907.94;5023546;28;20187;-75
2022/05/27 07:32:59;;;;;;;2.87;2.47;;;;;;;16.98;96.71;100903.53;5022290;28;20232;-74
2022/05/27 07:35:25;;;;;;;2.53;2.33;;;;;;;17.04;96.48;100901.63;5023641;28;20200;-77
2022/05/27 07:37:51;;;;;;;4.60;2.63;;;;;;;17.10;96.12;100899.75;5017434;28;20563;-77
2022/05/27 07:40:16;;;;;;;2.63;2.43;;;;;;;17.17;95.67;100903.91;5024725;28;20183;-77
2022/05/27 07:42:42;;;;;;;2.23;2.03;;;;;;;17.21;95.51;100898.56;5020759;28;20276;-75
2022/05/27 07:45:10;;;;;;;2.70;2.40;;;;;;;17.30;95.38;100905.31;5021236;28;20340;-75
2022/05/27 07:47:35;;;;;;;2.47;2.13;;;;;;;17.42;94.76;100903.25;5024599;28;20195;-75
2022/05/27 07:50:01;;;;;;;2.70;2.50;;;;;;;17.56;94.31;100908.09;5021017;28;20203;-76
2022/05/27 07:52:26;;;;;;;2.30;2.10;;;;;;;17.72;93.84;100908.53;5024573;28;20187;-76
2022/05/27 07:54:54;;;;;;;2.60;2.40;;;;;;;17.94;93.36;100906.13;5018181;28;20199;-76
2022/05/27 07:57:25;;;;;;;3.10;2.80;;;;;;;18.21;91.64;100904.47;5025214;28;20207;-76
2022/05/27 07:59:54;;;;;;;2.37;2.17;;;;;;;18.36;90.93;100907.53;5014638;28;20249;-77
2022/05/27 08:02:19;;;;;;;2.83;2.57;;;;;;;18.41;90.98;100914.34;5023739;28;20220;-78
2022/05/27 08:04:44;;;;;;;2.53;2.33;;;;;;;18.45;91.11;100911.63;5025898;28;20212;-76
2022/05/27 08:07:10;;;;;;;2.70;2.50;;;;;;;18.48;91.03;100911.50;5023388;28;20230;-75
2022/05/27 08:09:35;;;;;;;2.60;2.40;;;;;;;18.49;90.53;100903.59;5021793;28;20690;-76
2022/05/27 08:12:02;;;;;;;2.83;2.30;;;;;;;18.48;90.28;100911.50;5019183;28;20187;-76
2022/05/27 08:14:27;;;;;;;2.53;2.33;;;;;;;18.43;90.36;100903.78;5016745;28;20277;-76
2022/05/27 08:16:53;;;;;;;4.20;2.43;;;;;;;18.38;90.37;100906.56;5019703;28;20927;-76
2022/05/27 08:19:18;;;;;;;2.70;2.50;;;;;;;18.37;90.68;100906.63;5013273;28;20220;-76
2022/05/27 08:21:43;;;;;;;2.47;2.27;;;;;;;18.33;90.53;100900.59;5021300;28;20588;-76
2022/05/27 08:24:09;;;;;;;2.70;2.50;;;;;;;18.35;90.01;100911.88;5018988;28;20198;-75
2022/05/27 08:26:34;;;;;;;2.90;2.37;;;;;;;18.31;90.54;100914.66;5019895;28;20210;-77
2022/05/27 08:29:00;;;;;;;2.80;2.60;;;;;;;18.27;90.51;100916.53;5017919;28;20245;-76
2022/05/27 08:31:25;;;;;;;2.73;2.40;;;;;;;18.24;90.95;100920.06;5024970;28;20221;-77
2022/05/27 08:39:18;;;;;;;2.73;2.10;;;;;;;18.51;90.77;100911.41;5025320;28;20228;-76
2022/05/27 08:41:59;;;;;;;2.33;2.13;;;;;;;18.69;90.26;100913.44;5023643;28;20213;-76
2022/05/27 08:45:02;;;;;;;2.20;2.00;;;;;;;19.06;89.65;100907.91;5023561;28;20291;-75
2022/05/27 08:47:37;;;;;;;1.97;1.80;;;;;;;19.48;88.81;100904.66;5018290;28;20192;-78
2022/05/27 08:50:19;;;;;;;1.93;1.83;;;;;;;19.81;87.53;100912.19;5023122;28;20543;-75
2022/05/27 08:52:50;;;;;;;2.47;1.93;;;;;;;19.90;87.07;100908.38;5018223;28;20195;-76
2022/05/27 09:01:33;;;;;;;2.20;2.00;;;;;;;19.43;87.68;100920.59;5024026;28;20595;-76
2022/05/27 09:04:17;;;;;;;2.00;1.90;;;;;;;19.30;87.83;100914.91;5021036;28;20594;-75
2022/05/27 09:06:51;;;;;;;1.97;1.77;;;;;;;19.18;88.18;100921.44;5025633;28;20195;-75
2022/05/27 09:09:26;;;;;;;2.83;1.90;;;;;;;19.18;88.51;100924.06;5024012;28;20218;-76
2022/05/27 09:12:03;;;;;;;2.20;2.00;;;;;;;19.29;88.37;100917.56;5014596;28;20618;-76
2022/05/27 09:14:31;;;;;;;1.80;1.70;;;;;;;19.45;88.12;100916.09;5018788;28;20183;-76
2022/05/27 09:17:04;;;;;;;1.87;1.73;;;;;;;19.62;87.40;100914.63;5026511;28;20198;-76
2022/05/27 09:19:51;;;;;;;1.80;1.70;;;;;;;19.70;86.84;100915.22;5017500;28;20222;-76
2022/05/27 09:22:35;;;;;;;1.97;1.87;;;;;;;19.80;87.01;100913.97;5024703;28;20601;-76
2022/05/27 09:25:26;;;;;;;2.13;1.80;;;;;;;20.02;86.05;100914.94;5019997;28;20217;-76
2022/05/27 09:28:04;;;;;;;2.40;1.70;;;;;;;20.39;84.70;100906.47;5025482;28;20289;-75
2022/05/27 09:30:34;;;;;;;1.57;1.47;;;;;;;20.83;83.60;100900.34;5018825;28;20232;-77
2022/05/27 09:33:09;;;;;;;2.07;1.70;;;;;;;21.35;82.00;100898.97;5025154;28;20191;-76
2022/05/27 09:35:44;;;;;;;1.90;1.60;;;;;;;21.74;80.89;100899.91;5016912;28;20467;-76
2022/05/27 09:38:25;;;;;;;1.57;1.47;;;;;;;22.07;79.71;100889.59;5024420;28;20213;-75
2022/05/27 09:41:04;;;;;;;1.90;1.80;;;;;;;22.33;78.37;100890.09;5026379;28;20203;-76
2022/05/27 09:43:39;;;;;;;1.50;1.30;;;;;;;22.63;77.65;100893.94;5021816;28;20199;-76
2022/05/27 09:46:11;;;;;;;1.50;1.40;;;;;;;22.72;76.85;100884.72;5026709;28;20183;-77
2022/05/27 09:48:36;;;;;;;1.83;1.60;;;;;;;22.73;75.45;100883.78;5026946;28;20226;-77
2022/05/27 09:51:06;;;;;;;2.57;1.50;;;;;;;22.93;75.18;100894.19;5026197;28;20191;-76
2022/05/27 09:53:48;;;;;;;2.00;1.63;;;;;;;23.43;74.19;100884.56;5015556;28;20267;-76
2022/05/27 09:56:31;;;;;;;1.60;1.50;;;;;;;23.70;72.93;100883.16;5023779;28;20178;-77
2022/05/27 09:59:16;;;;;;;2.43;1.70;;;;;;;23.80;71.99;100889.66;5032206;28;20646;-76
2022/05/27 10:01:42;;;;;;;2.50;1.30;;;;;;;23.74;72.33;100890.84;5020738;28;20222;-75
2022/05/27 10:04:13;;;;;;;1.97;1.40;;;;;;;23.69;72.30;100886.75;5023369;28;20274;-76
2022/05/27 10:06:39;;;;;;;1.70;1.40;;;;;;;23.56;72.55;100887.44;5024725;28;20188;-75
2022/05/27 10:09:30;;;;;;;1.57;1.47;;;;;;;23.40;72.53;100889.19;5024873;28;20291;-76
2022/05/27 10:11:57;;;;;;;1.37;1.10;;;;;;;23.41;72.94;100888.25;5024301;28;20186;-76
2022/05/27 10:14:34;;;;;;;1.90;1.80;;;;;;;23.61;72.72;100887.16;5022137;28;20595;-75
2022/05/27 10:17:13;;;;;;;3.53;1.60;;;;;;;23.78;72.00;100875.66;5021896;28;20309;-75
2022/05/27 10:19:41;;;;;;;1.80;1.70;;;;;;;23.96;71.60;100878.22;5021468;28;20200;-76
2022/05/27 10:22:20;;;;;;;2.07;1.37;;;;;;;24.22;71.05;100875.91;5013065;28;20208;-77
2022/05/27 10:24:59;;;;;;;2.27;1.73;;;;;;;24.46;69.78;100871.88;5020590;28;20195;-76
2022/05/27 10:27:33;;;;;;;2.30;1.67;;;;;;;24.66;68.79;100862.75;5024507;28;20298;-76
2022/05/27 10:30:01;;;;;;;1.70;1.60;;;;;;;24.69;68.90;100866.19;5020389;28;20186;-75
2022/05/27 10:32:37;;;;;;;2.73;1.50;;;;;;;24.70;69.33;100868.75;5014139;28;20202;-76
2022/05/27 10:35:16;;;;;;;2.03;1.50;;;;;;;24.68;69.80;100875.06;5023140;28;20179;-76
2022/05/27 10:38:13;;;;;;;1.53;1.43;;;;;;;24.61;69.60;100867.47;5029058;28;20198;-76
2022/05/27 10:40:53;;;;;;;1.93;1.60;;;;;;;24.63;68.74;100865.59;5021156;28;20559;-75
2022/05/27 10:43:44;;;;;;;1.30;1.13;;;;;;;24.68;68.39;100864.47;5028811;28;20731;-76
2022/05/27 10:46:21;;;;;;;2.03;1.50;;;;;;;24.89;67.84;100871.13;5015204;28;20208;-76
2022/05/27 10:49:18;;;;;;;1.50;1.40;;;;;;;24.95;66.81;100860.19;5015720;28;20218;-76
2022/05/27 10:52:00;;;;;;;1.40;1.30;;;;;;;24.90;67.30;100867.56;5016156;28;20275;-77
2022/05/27 10:54:51;;;;;;;1.93;1.80;;;;;;;24.82;67.53;100867.19;5025493;28;20236;-76
2022/05/27 11:03:10;;;;;;;3.40;1.80;;;;;;;24.91;68.06;100847.25;5021105;28;20273;-78
2022/05/27 11:06:01;;;;;;;2.53;1.80;;;;;;;24.83;68.17;100855.66;5019656;28;20229;-77
2022/05/27 11:08:30;;;;;;;2.10;1.53;;;;;;;24.88;68.00;100853.56;5014846;28;20207;-77
2022/05/27 11:11:14;;;;;;;1.47;1.37;;;;;;;24.82;68.09;100851.28;5019377;28;20198;-76
2022/05/27 11:16:51;;;;;;;1.50;1.40;;;;;;;24.86;68.20;100850.19;5018945;28;20197;-76
2022/05/27 11:19:32;;;;;;;3.63;1.80;;;;;;;24.92;67.89;100848.94;5024030;28;20238;-76
2022/05/27 11:22:24;;;;;;;2.97;1.43;;;;;;;24.83;68.09;100849.47;5019434;28;20223;-76
2022/05/27 11:25:01;;;;;;;1.57;1.47;;;;;;;24.74;68.35;100843.81;5018974;28;20183;-76
2022/05/27 11:27:47;;;;;;;3.03;1.33;;;;;;;24.47;68.67;100841.84;5021846;28;20200;-76
2022/05/27 11:30:39;;;;;;;2.47;1.50;;;;;;;24.12;69.30;100835.97;5024063;28;20187;-75
2022/05/27 11:33:07;;;;;;;1.60;1.50;;;;;;;23.92;69.88;100835.25;4993976;28;20274;-76
2022/05/27 11:35:48;;;;;;;1.33;1.23;;;;;;;23.75;70.10;100844.13;5019824;28;20184;-76
2022/05/27 11:38:52;;;;;;;1.47;1.37;;;;;;;23.66;70.25;100839.34;5016723;28;20231;-76
2022/05/27 11:41:27;;;;;;;1.47;1.33;;;;;;;23.66;70.29;100834.94;5014407;28;20695;-76
2022/05/27 11:44:38;;;;;;;2.40;1.67;;;;;;;23.69;70.29;100837.38;5013239;28;20682;-75
2022/05/27 11:47:18;;;;;;;2.10;1.80;;;;;;;23.70;70.28;100830.31;5035021;28;20188;-76
2022/05/27 11:50:31;;;;;;;1.70;1.60;;;;;;;23.70;70.32;100822.41;5021028;28;20276;-76
2022/05/27 11:53:02;;;;;;;1.80;1.70;;;;;;;23.71;70.63;100821.47;4974736;28;20177;-75
2022/05/27 11:55:39;;;;;;;1.90;1.80;;;;;;;23.63;70.44;100821.88;5012555;28;20199;-77
2022/05/27 11:58:07;;;;;;;1.53;1.43;;;;;;;23.48;71.04;100820.09;5015664;28;20694;-76
2022/05/27 12:00:39;;;;;;;1.97;1.80;;;;;;;23.20;71.71;100822.44;5017107;28;20643;-78
2022/05/27 12:03:11;;;;;;;1.60;1.50;;;;;;;22.97;72.32;100826.25;5016576;28;20208;-75
2022/05/27 12:05:43;;;;;;;1.40;1.30;;;;;;;22.76;72.50;100826.47;5022836;28;20191;-76
2022/05/27 12:08:37;;;;;;;1.40;1.23;;;;;;;22.56;73.24;100824.81;5025150;28;20264;-76
2022/05/27 12:11:24;;;;;;;1.40;1.30;;;;;;;22.48;73.45;100825.22;5022141;28;20202;-75
2022/05/27 12:13:52;;;;;;;2.63;1.50;;;;;;;22.48;72.94;100819.94;5017222;28;20550;-75
2022/05/27 12:16:19;;;;;;;2.70;1.70;;;;;;;22.42;73.11;100819.41;5022666;28;20183;-76
2022/05/27 12:19:10;;;;;;;1.47;1.37;;;;;;;22.38;73.52;100818.66;5018470;28;20254;-76
2022/05/27 12:21:40;;;;;;;1.17;1.17;;;;;;;22.31;73.65;100820.75;5008135;28;20711;-76